Lurgan, United Kingdom
Current Conditions -  °F | °C
As of 8:50 PM on Saturday 20 Dec 2014 (Local Time) from EGAA Reporting Station
Broken Clouds Broken Clouds  
Wind Chill: 37°   Ceiling: 1200
Heat Index: 43°   Visibility: 6mi
Dew Point: 43°   Wind: 9mph
Humidity: 100%   Direction: 210°SSW
Pressure: 30.27"   Gusts: NA
Location:  54.46°N, 6.32°W
Report Text: EGAA 202050Z 21008KT 9999 FEW004 SCT008 BKN012 06/06 Q1025
Loading
Personal Weather Stations






























Interactive Weather Map New forecast layout! Learn more

10-Day Weather Forecast

Advertisements
Track Severe Weather on mobile